| time (UTC) | temp F | wind direction | speed MPH | gust MPH | rain 1hr in | rain 24hr in | rain mn in | humidity % | barometer mb |
| 20260510074541 | 37 | 0 | 0.0 | 0.0 | 0.00 | 0.02 | 0.00 | 77 | 1016.1 |
| 20260510073037 | 37 | 0 | 0.0 | 0.0 | 0.00 | 0.02 | 0.00 | 75 | 1016.1 |
| 20260510071545 | 37 | 0 | 0.0 | 0.0 | 0.00 | 0.02 | 0.00 | 74 | 1016.1 |
| 20260510070047 | 38 | 0 | 0.0 | 0.0 | 0.00 | 0.02 | 0.00 | 72 | 1016.1 |
| 20260510064539 | 39 | 0 | 0.0 | 0.0 | 0.00 | 0.02 | 0.00 | 70 | 1016.0 |
| 20260510063041 | 39 | 0 | 0.0 | 0.0 | 0.00 | 0.02 | 0.00 | 68 | 1015.8 |
| 20260510061538 | 40 | 0 | 0.0 | 0.0 | 0.00 | 0.02 | 0.00 | 67 | 1016.0 |
| 20260510060053 | 41 | 0 | 0.0 | 0.0 | 0.00 | 0.02 | 0.00 | 65 | 1015.9 |
| 20260510054547 | 41 | 0 | 0.0 | 0.0 | 0.00 | 0.02 | 0.00 | 63 | 1015.7 |
| 20260510053043 | 42 | 0 | 0.0 | 0.0 | 0.00 | 0.02 | 0.00 | 63 | 1015.6 |
| 20260510051559 | 42 | 0 | 0.0 | 0.0 | 0.00 | 0.02 | 0.00 | 62 | 1015.5 |
| 20260510050049 | 42 | 0 | 0.0 | 0.0 | 0.00 | 0.02 | 0.00 | 59 | 1015.4 |
| 20260510044546 | 43 | 0 | 0.0 | 0.0 | 0.00 | 0.02 | 0.02 | 58 | 1015.5 |
| 20260510043120 | 44 | 0 | 0.0 | 0.0 | 0.00 | 0.02 | 0.02 | 56 | 1015.4 |
| 20260510041551 | 45 | 0 | 0.0 | 0.0 | 0.00 | 0.02 | 0.02 | 53 | 1015.4 |
| 20260510040042 | 46 | 0 | 0.0 | 0.0 | 0.00 | 0.02 | 0.02 | 51 | 1015.1 |
| 20260510034545 | 48 | 0 | 0.0 | 0.0 | 0.00 | 0.02 | 0.02 | 48 | 1015.2 |
| 20260510033040 | 49 | 0 | 0.0 | 3.0 | 0.00 | 0.02 | 0.02 | 46 | 1015.2 |
| 20260510031605 | 50 | 201 | 0.0 | 6.0 | 0.00 | 0.02 | 0.02 | 44 | 1015.0 |
| 20260510030045 | 50 | 202 | 1.0 | 4.0 | 0.00 | 0.02 | 0.02 | 43 | 1014.9 |
| 20260510024545 | 51 | 201 | 1.0 | 6.0 | 0.00 | 0.02 | 0.02 | 42 | 1014.4 |
| 20260510023047 | 52 | 0 | 2.0 | 9.0 | 0.00 | 0.02 | 0.02 | 41 | 1014.2 |
| 20260510021542 | 52 | 186 | 0.0 | 7.0 | 0.00 | 0.02 | 0.02 | 40 | 1013.8 |
| 20260510020037 | 53 | 160 | 2.0 | 8.0 | 0.00 | 0.02 | 0.02 | 38 | 1013.5 |
| 20260510014538 | 53 | 217 | 2.0 | 9.0 | 0.00 | 0.02 | 0.02 | 38 | 1013.1 |
| 20260510013038 | 54 | 171 | 2.0 | 7.0 | 0.00 | 0.02 | 0.02 | 38 | 1012.8 |
| 20260510011556 | 54 | 200 | 3.0 | 12.0 | 0.00 | 0.02 | 0.02 | 36 | 1012.5 |
| 20260510010050 | 55 | 256 | 2.0 | 9.0 | 0.00 | 0.02 | 0.02 | 35 | 1012.3 |
| 20260510004542 | 56 | 198 | 4.0 | 12.0 | 0.00 | 0.02 | 0.02 | 35 | 1012.1 |
| 20260510003038 | 56 | 171 | 3.0 | 16.0 | 0.00 | 0.02 | 0.02 | 34 | 1012.0 |
| 20260510001537 | 57 | 237 | 3.0 | 11.0 | 0.00 | 0.02 | 0.02 | 34 | 1011.8 |
| 20260510000048 | 59 | 221 | 3.0 | 10.0 | 0.00 | 0.02 | 0.02 | 33 | 1011.6 |
| 20260509234543 | 58 | 242 | 3.0 | 13.0 | 0.00 | 0.02 | 0.02 | 35 | 1011.4 |
| 20260509233041 | 57 | 167 | 3.0 | 9.0 | 0.00 | 0.02 | 0.02 | 35 | 1011.3 |
| 20260509231546 | 57 | 252 | 4.0 | 12.0 | 0.00 | 0.02 | 0.02 | 33 | 1011.2 |
| 20260509230040 | 58 | 242 | 5.0 | 14.0 | 0.00 | 0.02 | 0.02 | 34 | 1011.1 |
| 20260509224537 | 58 | 0 | 3.0 | 14.0 | 0.00 | 0.02 | 0.02 | 32 | 1011.0 |
| 20260509223037 | 59 | 209 | 3.0 | 13.0 | 0.00 | 0.02 | 0.02 | 33 | 1010.9 |
| 20260509221545 | 59 | 221 | 6.0 | 16.0 | 0.00 | 0.02 | 0.02 | 33 | 1010.8 |
| 20260509220046 | 59 | 0 | 2.0 | 11.0 | 0.00 | 0.02 | 0.02 | 34 | 1010.4 |
| 20260509214541 | 58 | 198 | 6.0 | 19.0 | 0.00 | 0.02 | 0.02 | 33 | 1010.6 |
| 20260509213101 | 59 | 176 | 5.0 | 16.0 | 0.00 | 0.02 | 0.02 | 33 | 1010.4 |
| 20260509211605 | 59 | 192 | 5.0 | 17.0 | 0.00 | 0.02 | 0.02 | 33 | 1010.4 |
| 20260509210055 | 59 | 286 | 7.0 | 18.0 | 0.00 | 0.02 | 0.02 | 35 | 1010.1 |
| 20260509204558 | 58 | 191 | 4.0 | 18.0 | 0.00 | 0.02 | 0.02 | 37 | 1009.9 |
| 20260509203052 | 59 | 167 | 5.0 | 17.0 | 0.00 | 0.02 | 0.02 | 35 | 1009.8 |
| 20260509201541 | 59 | 232 | 2.0 | 13.0 | 0.00 | 0.02 | 0.02 | 37 | 1009.8 |
| 20260509200039 | 58 | 236 | 8.0 | 19.0 | 0.00 | 0.02 | 0.02 | 35 | 1009.8 |
| 20260509194539 | 58 | 184 | 2.0 | 14.0 | 0.00 | 0.02 | 0.02 | 36 | 1009.6 |
| 20260509193046 | 59 | 218 | 4.0 | 20.0 | 0.00 | 0.02 | 0.02 | 37 | 1009.5 |
| 20260509191537 | 58 | 206 | 5.0 | 14.0 | 0.00 | 0.02 | 0.02 | 36 | 1009.5 |
| 20260509190052 | 57 | 216 | 8.0 | 25.0 | 0.00 | 0.02 | 0.02 | 36 | 1009.4 |
| 20260509184547 | 57 | 215 | 6.0 | 13.0 | 0.00 | 0.02 | 0.02 | 36 | 1009.5 |
| 20260509183043 | 57 | 242 | 6.0 | 14.0 | 0.00 | 0.02 | 0.02 | 38 | 1009.2 |
| 20260509181550 | 57 | 201 | 4.0 | 15.0 | 0.00 | 0.02 | 0.02 | 40 | 1009.1 |
| 20260509180045 | 57 | 185 | 4.0 | 22.0 | 0.00 | 0.02 | 0.02 | 42 | 1009.0 |
| 20260509174542 | 56 | 165 | 4.0 | 12.0 | 0.00 | 0.02 | 0.02 | 41 | 1008.9 |
| 20260509173041 | 55 | 225 | 7.0 | 17.0 | 0.00 | 0.02 | 0.02 | 41 | 1008.9 |
| 20260509171541 | 55 | 198 | 5.0 | 17.0 | 0.00 | 0.02 | 0.02 | 43 | 1008.9 |
| 20260509170046 | 55 | 222 | 3.0 | 14.0 | 0.00 | 0.02 | 0.02 | 47 | 1008.8 |
| 20260509164544 | 54 | 193 | 6.0 | 16.0 | 0.00 | 0.02 | 0.02 | 46 | 1008.8 |
| 20260509163054 | 54 | 115 | 5.0 | 16.0 | 0.00 | 0.02 | 0.02 | 47 | 1008.6 |
| 20260509161542 | 53 | 228 | 6.0 | 15.0 | 0.00 | 0.02 | 0.02 | 48 | 1008.4 |
| 20260509160042 | 53 | 202 | 6.0 | 14.0 | 0.00 | 0.02 | 0.02 | 49 | 1008.2 |
| 20260509154547 | 54 | 213 | 4.0 | 21.0 | 0.00 | 0.02 | 0.02 | 51 | 1008.0 |
| 20260509153050 | 54 | 297 | 4.0 | 12.0 | 0.00 | 0.02 | 0.02 | 54 | 1007.8 |
| 20260509151544 | 53 | 252 | 6.0 | 14.0 | 0.00 | 0.02 | 0.02 | 53 | 1007.5 |
| 20260509150042 | 53 | 210 | 4.0 | 11.0 | 0.00 | 0.02 | 0.02 | 59 | 1007.1 |
| 20260509144540 | 53 | 218 | 4.0 | 12.0 | 0.00 | 0.02 | 0.02 | 59 | 1007.1 |
| 20260509143051 | 52 | 202 | 4.0 | 11.0 | 0.00 | 0.02 | 0.02 | 62 | 1006.8 |
| 20260509141546 | 51 | 207 | 3.0 | 9.0 | 0.00 | 0.02 | 0.02 | 66 | 1006.7 |
| 20260509140050 | 50 | 278 | 3.0 | 12.0 | 0.00 | 0.02 | 0.02 | 68 | 1006.7 |
| 20260509134552 | 50 | 195 | 5.0 | 12.0 | 0.00 | 0.02 | 0.02 | 69 | 1006.5 |
| 20260509133053 | 50 | 199 | 4.0 | 12.0 | 0.00 | 0.02 | 0.02 | 73 | 1006.3 |
| 20260509131542 | 49 | 244 | 3.0 | 7.0 | 0.00 | 0.02 | 0.02 | 77 | 1006.2 |
| 20260509130044 | 48 | 152 | 3.0 | 10.0 | 0.00 | 0.02 | 0.02 | 82 | 1006.0 |
| 20260509124538 | 47 | 200 | 2.0 | 9.0 | 0.00 | 0.02 | 0.02 | 83 | 1005.6 |
| 20260509123047 | 47 | 201 | 2.0 | 8.0 | 0.00 | 0.02 | 0.02 | 84 | 1005.5 |
| 20260509121542 | 47 | 219 | 4.0 | 10.0 | 0.00 | 0.02 | 0.02 | 87 | 1005.2 |
| 20260509120048 | 47 | 190 | 1.0 | 9.0 | 0.00 | 0.02 | 0.02 | 88 | 1005.1 |
| 20260509114543 | 47 | 245 | 3.0 | 7.0 | 0.00 | 0.02 | 0.02 | 88 | 1004.8 |
| 20260509113036 | 47 | 198 | 2.0 | 9.0 | 0.00 | 0.02 | 0.02 | 89 | 1004.3 |
| 20260509111544 | 47 | 0 | 2.0 | 6.0 | 0.00 | 0.02 | 0.02 | 89 | 1004.0 |
| 20260509110043 | 47 | 207 | 0.0 | 3.0 | 0.01 | 0.02 | 0.02 | 89 | 1003.5 |
| 20260509104541 | 47 | 207 | 0.0 | 4.0 | 0.02 | 0.02 | 0.02 | 88 | 1003.3 |
| 20260509103041 | 48 | 217 | 0.0 | 3.0 | 0.02 | 0.02 | 0.02 | 88 | 1003.2 |
| 20260509101541 | 48 | 192 | 0.0 | 3.0 | 0.02 | 0.02 | 0.02 | 86 | 1003.0 |
| 20260509100039 | 48 | 221 | 0.0 | 3.0 | 0.01 | 0.01 | 0.01 | 85 | 1002.9 |
| 20260509094547 | 48 | 0 | 0.0 | 1.0 | 0.00 | 0.00 | 0.00 | 83 | 1003.0 |
| 20260509093041 | 49 | 0 | 0.0 | 3.0 | 0.00 | 0.00 | 0.00 | 80 | 1002.6 |
| 20260509091541 | 50 | 221 | 0.0 | 5.0 | 0.00 | 0.00 | 0.00 | 77 | 1003.2 |
| 20260509090038 | 51 | 0 | 2.0 | 8.0 | 0.00 | 0.00 | 0.00 | 73 | 1003.3 |
| 20260509084540 | 51 | 318 | 2.0 | 5.0 | 0.00 | 0.00 | 0.00 | 70 | 1002.9 |
| 20260509083049 | 52 | 188 | 2.0 | 8.0 | 0.00 | 0.00 | 0.00 | 69 | 1002.9 |
| 20260509081546 | 52 | 196 | 1.0 | 9.0 | 0.00 | 0.00 | 0.00 | 66 | 1002.9 |
| 20260509080105 | 52 | 213 | 2.0 | 12.0 | 0.00 | 0.00 | 0.00 | 63 | 1002.9 |